KDSV/DSV METAR and TAF weather

Enter ICAO airport designator
Station Type Date Time Source
KDSV METAR 2024/04/15 08:45 UTC NOAA

KDSV 150845Z AUTO 00000KT 1 1/4SM BR SCT002 06/04 A2980 RMK AO2 T00560039


Station Type Date Time Source
KDSV Decoded METAR 2024/04/15 08:45 UTC NOAA

DANSVILLE MUNICIPAL AIRPORT, NY, United States (KDSV) 42-34N 077-43W 198M
Apr 15, 2024 - 04:45 AM EDT / 2024.04.15 0845 UTC
Wind: Calm:0
Visibility: 1 1/4 mile(s):0
Sky conditions: partly cloudy
Weather: mist
Temperature: 42.1 F (5.6 C)
Dew Point: 39.0 F (3.9 C)
Relative Humidity: 88%
Pressure (altimeter): 29.8 in. Hg (1009 hPa)
ob: KDSV 150845Z AUTO 00000KT 1 1/4SM BR SCT002 06/04 A2980 RMK AO2 T00560039
cycle: 9

Station Type Date Time Source
KDSV TAF UTC NOAA

Error!

Example: see airport list